Portada
METAR-TAF:

METAR-TAF

Aeroports :

Hagåtña, Guam, Estats Units d'Amèrica

latitud: 13-29N, longitud: 144-48E, altitud: 91 m

Observació

L'informe es va fer fa 17 minuts, a les 09:54 UTC
Vent 8 kt del Est
Temperatura 28°C
Humitat 74%
Pressió 1014 hPa
Visibilitat: 16.1 km
Escasses núvols a una alçada de 7000 ft

METAR: PGUM 250954Z 08008KT 10SM FEW070 28/23 A2995 RMK AO2 SLP132 T02830233

Hora: 20:11 (10:11 UTC)

Pronòstic

L'informe es va fer fa 4 hores i 51 minuts, a les 05:20 UTC
Pronòstic vàlid del 25 a les 06 UTC al 26 a les 12 UTC
Vent 14 kt del Est
Visibilitat: 10 km
Núvols disperses a una alçada de 2500 ft
A partir de les 25 a les 0800 UTC
Vent 10 kt del Est
Visibilitat: 10 km
Escasses núvols a una alçada de 2000 ft
xàfecs en les proximitats
A partir de les 26 a les 0000 UTC
Vent 15 kt del Est
Visibilitat: 10 km
Núvols disperses a una alçada de 2200 ft

TAF: PGUM 250520Z 2506/2612 09014KT P6SM SCT025 FM250800 09010KT P6SM VCSH FEW020 FM260000 09015KT P6SM SCT022

Observacions i pronòstics meteorològics de més de 4000 aeroports (METAR i TAF).

Les estacions disponibles són els punts grocs i vermells al mapa.

Posi el ratolí al punt desitjat per veure el nom de l'estació.

Feu clic per veure les observacions i els pronòstics meteorològics.

Per canviar el mapa: feu clic els botons verds amb una creu de color negre per apropar; al botó verd amb un guió per allunyar la imatge; o en les fletxes verdes per a mapes adjacents.


METAR-TAF: